Time;durP1;ratioP1;P1;durP2;ratioP2;P2;SDS_P1;SDS_P2;PMS_P1;PMS_P2;Temp;Humidity;BMP_temperature;BMP_pressure;BME280_temperature;BME280_humidity;BME280_pressure;Samples;Min_cycle;Max_cycle;Signal;HPM_P1;HPM_P2
2023/10/01 00:00:20;;;;;;;10.80;4.43;;;;;;;11.22;100.00;100250.41;4993024;28;20035;-68
2023/10/01 00:02:51;;;;;;;9.67;3.43;;;;;;;11.35;100.00;100253.31;4992927;28;20061;-68
2023/10/01 00:05:17;;;;;;;13.13;4.13;;;;;;;11.37;100.00;100251.28;4993056;28;20030;-69
2023/10/01 00:07:43;;;;;;;11.67;3.80;;;;;;;11.27;100.00;100241.88;4992936;28;20429;-70
2023/10/01 00:10:12;;;;;;;9.97;4.23;;;;;;;11.44;100.00;100273.56;4994425;28;20072;-69
2023/10/01 00:12:49;;;;;;;12.37;4.03;;;;;;;11.41;100.00;100267.75;4993485;28;20058;-69
2023/10/01 00:15:18;;;;;;;11.37;4.17;;;;;;;11.02;100.00;100211.94;4993825;28;20096;-69
2023/10/01 00:17:45;;;;;;;11.57;3.70;;;;;;;11.26;100.00;100251.72;4993840;28;20057;-70
2023/10/01 00:22:41;;;;;;;7.10;3.67;;;;;;;11.23;100.00;100244.06;4993173;28;20474;-67
2023/10/01 00:25:08;;;;;;;10.43;3.80;;;;;;;10.91;100.00;100194.53;4993972;28;20578;-65
2023/10/01 00:27:34;;;;;;;11.23;4.50;;;;;;;11.31;100.00;100257.34;4995139;28;20093;-67
2023/10/01 00:29:59;;;;;;;8.47;3.60;;;;;;;10.49;100.00;100144.41;4994090;28;20030;-70
2023/10/01 00:32:29;;;;;;;12.53;4.20;;;;;;;11.30;100.00;100237.03;4992645;28;20077;-68
2023/10/01 00:34:58;;;;;;;14.10;4.47;;;;;;;11.62;100.00;100259.91;4991521;28;20045;-70
2023/10/01 00:37:23;;;;;;;;;;;;;;;11.69;100.00;100257.34;4992989;28;20037;-68
2023/10/01 00:39:58;;;;;;;8.47;3.70;;;;;;;11.49;100.00;100225.84;4992518;28;19914;-68
2023/10/01 00:42:24;;;;;;;12.60;3.80;;;;;;;11.54;100.00;100235.13;4991570;28;21057;-68
2023/10/01 00:44:50;;;;;;;8.87;6.37;;;;;;;11.37;100.00;100234.47;4992603;28;20038;-70
2023/10/01 00:47:16;;;;;;;10.33;3.73;;;;;;;11.37;100.00;100227.31;4991342;28;20146;-68
2023/10/01 00:49:47;;;;;;;10.17;3.67;;;;;;;11.34;100.00;100222.34;4992652;28;20105;-68
2023/10/01 00:52:14;;;;;;;10.20;3.93;;;;;;;11.44;100.00;100232.72;4992450;28;20370;-67
2023/10/01 00:54:40;;;;;;;7.27;3.97;;;;;;;11.46;100.00;100226.22;4992887;28;20541;-68
2023/10/01 00:57:05;;;;;;;9.97;3.83;;;;;;;11.20;100.00;100184.97;4992919;28;20125;-68
2023/10/01 00:59:33;;;;;;;9.33;3.73;;;;;;;11.18;100.00;100185.97;4992242;28;20134;-69
2023/10/01 01:02:00;;;;;;;12.43;3.90;;;;;;;11.38;100.00;100220.97;4992452;28;20029;-68
2023/10/01 01:04:29;;;;;;;11.80;3.57;;;;;;;11.32;100.00;100216.34;4992513;28;20030;-69
2023/10/01 01:07:00;;;;;;;9.73;4.30;;;;;;;11.22;100.00;100205.09;4992493;28;20340;-69
2023/10/01 01:09:28;;;;;;;15.00;5.27;;;;;;;11.25;100.00;100226.06;4993673;28;20029;-67
2023/10/01 01:11:53;;;;;;;8.50;3.73;;;;;;;11.04;100.00;100196.63;4996292;28;20038;-66
2023/10/01 01:14:21;;;;;;;10.80;3.60;;;;;;;11.15;100.00;100223.66;4995124;28;20042;-67
2023/10/01 01:16:48;;;;;;;8.33;3.77;;;;;;;11.18;100.00;100225.13;4995935;28;20034;-66
2023/10/01 01:19:15;;;;;;;13.83;4.70;;;;;;;11.13;100.00;100217.69;4996122;28;20026;-68
2023/10/01 01:21:42;;;;;;;10.40;3.40;;;;;;;11.11;100.00;100213.53;4994642;28;20034;-66
2023/10/01 01:24:11;;;;;;;11.43;4.20;;;;;;;11.15;100.00;100231.66;4995908;28;20030;-67
2023/10/01 01:26:37;;;;;;;9.30;3.53;;;;;;;10.92;100.00;100209.50;4995982;28;20050;-67
2023/10/01 01:29:17;;;;;;;6.23;3.60;;;;;;;11.17;100.00;100239.47;4996686;28;20540;-67
2023/10/01 01:32:02;;;;;;;6.80;3.17;;;;;;;11.02;100.00;100206.63;4996104;28;20532;-69
2023/10/01 01:34:28;;;;;;;10.33;3.77;;;;;;;11.17;100.00;100220.81;4995606;28;20041;-66
2023/10/01 01:36:53;;;;;;;8.37;3.27;;;;;;;11.17;100.00;100223.47;4995699;28;20038;-67
2023/10/01 01:39:28;;;;;;;8.67;3.57;;;;;;;11.19;100.00;100221.47;4994285;28;20030;-67
2023/10/01 01:41:54;;;;;;;11.00;4.63;;;;;;;10.88;100.00;100162.94;4996264;28;20026;-67
2023/10/01 01:44:20;;;;;;;9.67;2.90;;;;;;;11.38;100.00;100238.78;4995801;28;20030;-68
2023/10/01 01:46:49;;;;;;;7.40;2.97;;;;;;;11.52;100.00;100242.50;4995504;28;20030;-68
2023/10/01 01:49:18;;;;;;;11.85;3.38;;;;;;;11.46;100.00;100228.03;4995299;28;20470;-65
2023/10/01 01:51:59;;;;;;;12.60;3.17;;;;;;;11.56;100.00;100223.28;4995521;28;20027;-69
2023/10/01 01:54:31;;;;;;;8.33;3.13;;;;;;;11.73;100.00;100234.63;4995639;28;20026;-68
2023/10/01 01:56:57;;;;;;;8.03;2.73;;;;;;;11.74;100.00;100234.44;4995210;28;20034;-68
2023/10/01 01:59:27;;;;;;;8.53;3.53;;;;;;;11.83;100.00;100245.88;4995092;28;20026;-67
2023/10/01 02:01:56;;;;;;;8.80;2.90;;;;;;;11.84;100.00;100230.69;4994726;28;20064;-66
2023/10/01 02:04:23;;;;;;;7.23;2.97;;;;;;;11.43;100.00;100161.75;5004176;28;20537;-68
2023/10/01 02:06:54;;;;;;;17.37;15.50;;;;;;;11.84;100.00;100228.84;5001669;28;20030;-69
2023/10/01 02:09:20;;;;;;;7.83;3.73;;;;;;;11.66;100.00;100202.50;4981055;28;20108;-65
2023/10/01 02:11:50;;;;;;;7.13;2.40;;;;;;;11.82;100.00;100224.72;4995023;28;20125;-68
2023/10/01 02:14:32;;;;;;;5.80;2.97;;;;;;;11.88;100.00;100229.34;4993424;28;20088;-69
2023/10/01 02:17:13;;;;;;;6.78;2.55;;;;;;;11.91;100.00;100224.44;4994123;28;20038;-68
2023/10/01 02:19:40;;;;;;;8.67;3.17;;;;;;;11.90;100.00;100214.78;4994827;28;20113;-67
2023/10/01 02:22:08;;;;;;;6.83;3.07;;;;;;;11.82;100.00;100190.84;4994720;28;20057;-67
2023/10/01 02:24:44;;;;;;;7.18;3.15;;;;;;;11.95;100.00;100209.72;4994421;28;20019;-66
2023/10/01 02:27:16;;;;;;;8.23;4.80;;;;;;;11.93;100.00;100209.09;4994392;28;20486;-68
2023/10/01 02:29:46;;;;;;;11.70;4.07;;;;;;;11.95;100.00;100209.72;4994178;28;20045;-68
2023/10/01 02:32:14;;;;;;;6.83;2.87;;;;;;;11.59;100.00;100152.75;4995198;28;20036;-68
2023/10/01 02:34:42;;;;;;;7.00;3.43;;;;;;;11.81;100.00;100189.19;4995200;28;20370;-70
2023/10/01 02:37:09;;;;;;;7.78;3.25;;;;;;;11.75;100.00;100173.91;4993145;28;20378;-67
2023/10/01 02:39:37;;;;;;;4.17;2.30;;;;;;;11.81;100.00;100178.53;4994650;28;20038;-71
2023/10/01 02:44:38;;;;;;;5.00;2.60;;;;;;;11.80;100.00;100203.53;4994453;28;20038;-68
2023/10/01 02:47:19;;;;;;;5.97;2.70;;;;;;;11.75;100.00;100188.06;4994742;28;20088;-67
2023/10/01 02:49:49;;;;;;;5.73;2.10;;;;;;;11.88;100.00;100205.31;4994571;28;20042;-69
2023/10/01 02:52:17;;;;;;;6.33;2.47;;;;;;;11.61;100.00;100150.75;4993021;28;20061;-69
2023/10/01 02:54:47;;;;;;;9.63;3.33;;;;;;;11.96;100.00;100202.53;4994422;28;20041;-68
2023/10/01 02:57:13;;;;;;;17.60;12.27;;;;;;;11.78;100.00;100184.22;4994153;28;20041;-69
2023/10/01 03:00:19;;;;;;;5.13;2.63;;;;;;;11.77;100.00;100182.53;4992751;28;20026;-67
2023/10/01 03:02:32;;;;;;;6.33;2.53;;;;;;;11.83;100.00;100199.69;4994440;28;20132;-67
2023/10/01 03:05:06;;;;;;;7.37;2.83;;;;;;;11.93;100.00;100214.41;4994630;28;20035;-67
2023/10/01 03:07:37;;;;;;;9.93;3.37;;;;;;;11.93;100.00;100208.25;4996265;28;20148;-67
2023/10/01 03:10:11;;;;;;;4.63;2.20;;;;;;;11.98;100.00;100206.69;4994720;28;20037;-71
2023/10/01 03:12:40;;;;;;;10.57;5.37;;;;;;;11.70;100.00;100173.63;4995450;28;20037;-67
2023/10/01 03:17:39;;;;;;;9.77;2.80;;;;;;;11.76;100.00;100186.22;4994025;28;20120;-66
2023/10/01 03:21:02;;;;;;;10.57;3.80;;;;;;;11.69;100.00;100185.31;4993691;28;20041;-67
2023/10/01 03:22:53;;;;;;;8.10;3.80;;;;;;;11.67;100.00;100166.81;4993664;28;20355;-66
2023/10/01 03:25:28;;;;;;;9.57;3.03;;;;;;;11.68;100.00;100173.00;4992075;28;20049;-68
2023/10/01 03:28:00;;;;;;;8.60;3.23;;;;;;;11.78;100.00;100189.56;4993658;28;20038;-68
2023/10/01 03:30:32;;;;;;;9.03;2.90;;;;;;;11.68;100.00;100173.00;4992253;28;20132;-67
2023/10/01 03:33:01;;;;;;;8.03;2.60;;;;;;;10.86;100.00;100040.56;4993093;28;20466;-67
2023/10/01 03:35:27;;;;;;;7.63;3.93;;;;;;;11.74;100.00;100180.25;4993275;28;20026;-65
2023/10/01 03:38:14;;;;;;;5.47;3.10;;;;;;;11.53;100.00;100142.81;4992128;28;20030;-67
2023/10/01 03:43:32;;;;;;;4.57;2.67;;;;;;;11.79;100.00;100180.56;4993238;28;20037;-68
2023/10/01 03:46:06;;;;;;;7.17;2.90;;;;;;;11.76;100.00;100180.88;4993167;28;20065;-66
2023/10/01 03:48:57;;;;;;;7.10;3.23;;;;;;;11.49;100.00;100145.03;4992377;28;20113;-68
2023/10/01 03:51:28;;;;;;;;;;;;;;;11.76;100.00;100183.56;4993658;28;20066;-71
2023/10/01 03:54:03;;;;;;;6.13;3.53;;;;;;;11.58;100.00;100159.13;4992993;28;19917;-70
2023/10/01 03:56:30;;;;;;;7.57;3.00;;;;;;;11.41;100.00;100140.59;4993530;28;20034;-66
2023/10/01 03:58:56;;;;;;;4.37;2.40;;;;;;;11.65;100.00;100184.03;4993191;28;20108;-69
2023/10/01 04:01:33;;;;;;;5.43;2.50;;;;;;;11.44;100.00;100139.41;4993141;28;20030;-68
2023/10/01 04:04:00;;;;;;;6.53;2.97;;;;;;;11.70;100.00;100168.28;4993554;28;20101;-66
2023/10/01 04:06:27;;;;;;;10.00;2.73;;;;;;;11.43;100.00;100122.59;4992921;28;20034;-67
2023/10/01 04:08:55;;;;;;;12.80;3.30;;;;;;;11.71;100.00;100161.94;4993919;28;20054;-68
2023/10/01 04:11:41;;;;;;;10.93;3.28;;;;;;;11.74;100.00;100166.91;4994466;28;20030;-70
2023/10/01 04:14:17;;;;;;;4.93;2.70;;;;;;;11.71;100.00;100156.63;4994600;28;20027;-70
2023/10/01 04:16:46;;;;;;;5.90;2.10;;;;;;;11.63;100.00;100146.03;4994187;28;20178;-67
2023/10/01 04:19:18;;;;;;;9.77;2.63;;;;;;;11.79;100.00;100169.88;4993707;28;20121;-68
2023/10/01 04:21:44;;;;;;;6.00;2.70;;;;;;;11.73;100.00;100160.75;4994518;28;20422;-72
2023/10/01 04:24:10;;;;;;;5.63;2.80;;;;;;;11.58;100.00;100140.44;4994280;28;20034;-67
2023/10/01 04:26:36;;;;;;;5.50;2.53;;;;;;;11.75;100.00;100171.22;4993133;28;20057;-67
2023/10/01 04:29:01;;;;;;;6.83;3.27;;;;;;;11.72;100.00;100147.59;4993500;28;20034;-67
2023/10/01 04:31:42;;;;;;;7.07;2.50;;;;;;;11.77;100.00;100150.53;4992806;28;20030;-68
2023/10/01 04:34:12;;;;;;;9.13;3.17;;;;;;;11.78;100.00;100141.53;4993416;28;20426;-68
2023/10/01 04:36:50;;;;;;;7.27;3.20;;;;;;;11.91;100.00;100157.75;4992810;28;20066;-68
2023/10/01 04:39:17;;;;;;;7.03;2.53;;;;;;;11.81;100.00;100149.19;4992725;28;20030;-65
2023/10/01 04:41:45;;;;;;;7.67;3.27;;;;;;;11.77;100.00;100151.34;4992512;28;20042;-67
2023/10/01 04:44:19;;;;;;;5.03;2.47;;;;;;;11.81;100.00;100149.19;4993510;28;20026;-69
2023/10/01 04:46:45;;;;;;;4.47;2.40;;;;;;;11.84;100.00;100164.81;4996707;28;20118;-67
2023/10/01 04:49:27;;;;;;;6.27;3.10;;;;;;;11.73;100.00;100149.25;4996712;28;20034;-69
2023/10/01 04:51:55;;;;;;;5.17;2.80;;;;;;;11.74;100.00;100161.56;4996875;28;20045;-70
2023/10/01 04:54:22;;;;;;;8.37;3.43;;;;;;;11.28;100.00;100087.13;4996611;28;20092;-69
2023/10/01 04:56:49;;;;;;;8.10;3.53;;;;;;;11.76;100.00;100159.56;4995349;28;20034;-65
2023/10/01 04:59:15;;;;;;;4.67;2.70;;;;;;;11.67;100.00;100163.34;4996519;28;20498;-69
2023/10/01 05:01:41;;;;;;;7.90;2.80;;;;;;;11.79;100.00;100153.88;4996438;28;20542;-68
2023/10/01 05:04:11;;;;;;;6.73;2.57;;;;;;;11.90;100.00;100166.75;4996342;28;20117;-67
2023/10/01 05:06:40;;;;;;;6.23;2.73;;;;;;;11.68;100.00;100122.31;4996728;28;20116;-65
2023/10/01 05:09:08;;;;;;;5.67;2.83;;;;;;;12.15;100.00;100169.13;4996276;28;20104;-67
2023/10/01 05:11:33;;;;;;;3.33;2.33;;;;;;;12.16;100.00;100165.44;4996325;28;20041;-67
2023/10/01 05:13:59;;;;;;;6.33;2.40;;;;;;;12.02;100.00;100165.25;4996476;28;20410;-68
2023/10/01 05:16:31;;;;;;;4.73;2.50;;;;;;;12.01;100.00;100168.13;4996082;28;20041;-69
2023/10/01 05:19:09;;;;;;;6.03;2.97;;;;;;;11.78;100.00;100141.53;4996403;28;20034;-68
2023/10/01 05:21:49;;;;;;;10.55;3.03;;;;;;;11.99;100.00;100181.66;4994611;28;20034;-68
2023/10/01 05:24:31;;;;;;;7.70;3.67;;;;;;;11.98;100.00;100179.16;4996553;28;20066;-68
2023/10/01 05:27:02;;;;;;;8.03;3.20;;;;;;;11.96;100.00;100181.19;4995924;28;20042;-67
2023/10/01 05:29:28;;;;;;;4.23;2.40;;;;;;;11.95;100.00;100180.38;4996228;28;20038;-67
2023/10/01 05:31:55;;;;;;;4.47;2.70;;;;;;;11.78;100.00;100157.56;4994330;28;20026;-69
2023/10/01 05:34:22;;;;;;;7.30;3.43;;;;;;;11.97;100.00;100193.53;4995830;28;20026;-68
2023/10/01 05:36:52;;;;;;;4.60;2.57;;;;;;;11.92;100.00;100172.75;4995756;28;20041;-70
2023/10/01 05:39:23;;;;;;;5.47;2.67;;;;;;;12.00;100.00;100180.63;4995804;28;20025;-67
2023/10/01 05:41:51;;;;;;;7.00;3.43;;;;;;;11.89;100.00;100170.44;4994243;28;20109;-68
2023/10/01 05:44:18;;;;;;;8.02;3.10;;;;;;;12.16;100.00;100205.47;4995440;28;20033;-68
2023/10/01 05:46:48;;;;;;;4.03;2.47;;;;;;;12.22;100.00;100202.06;4995337;28;20141;-68
2023/10/01 05:49:17;;;;;;;7.00;3.00;;;;;;;12.27;100.00;100211.16;4995607;28;20026;-68
2023/10/01 05:51:45;;;;;;;7.38;3.10;;;;;;;12.20;100.00;100190.75;4978053;28;20432;-71
2023/10/01 05:54:18;;;;;;;13.30;3.42;;;;;;;12.49;100.00;100213.88;4995826;28;20034;-68
2023/10/01 05:56:48;;;;;;;8.50;3.60;;;;;;;11.88;100.00;100098.59;4999837;28;20474;-66
2023/10/01 05:59:16;;;;;;;5.93;2.87;;;;;;;12.59;100.00;100199.19;4997001;28;20026;-70
2023/10/01 06:01:43;;;;;;;5.70;2.63;;;;;;;12.42;100.00;100171.06;4995733;28;20038;-70
2023/10/01 06:04:12;;;;;;;8.27;3.57;;;;;;;12.56;100.00;100188.06;4997471;28;20137;-68
2023/10/01 06:06:45;;;;;;;5.13;2.97;;;;;;;12.77;100.00;100217.47;4981996;28;20049;-68
2023/10/01 06:09:14;;;;;;;5.63;3.00;;;;;;;12.68;100.00;100200.72;4999102;28;20498;-69
2023/10/01 06:11:48;;;;;;;6.30;3.07;;;;;;;12.82;100.00;100216.91;4999691;28;20030;-67
2023/10/01 06:17:15;;;;;;;6.33;2.90;;;;;;;12.91;100.00;100221.09;4957848;29;20127;-67
2023/10/01 06:19:42;;;;;;;5.90;3.40;;;;;;;12.90;100.00;100235.47;4988294;28;20043;-68
2023/10/01 06:22:16;;;;;;;6.60;2.73;;;;;;;12.70;100.00;100216.56;4991709;28;20018;-68
2023/10/01 06:24:43;;;;;;;8.57;2.80;;;;;;;12.77;100.00;100233.50;4991828;28;20027;-68
2023/10/01 06:27:13;;;;;;;6.60;2.83;;;;;;;12.71;100.00;100221.72;4994828;28;20062;-70
2023/10/01 06:29:51;;;;;;;8.87;3.17;;;;;;;12.61;100.00;100233.72;4994487;28;20034;-70
2023/10/01 06:32:18;;;;;;;4.85;2.83;;;;;;;12.43;100.00;100210.09;4994538;28;20030;-68
2023/10/01 06:34:45;;;;;;;6.67;4.33;;;;;;;12.57;100.00;100243.97;4994739;28;20030;-68
2023/10/01 06:37:12;;;;;;;4.30;2.30;;;;;;;12.22;100.00;100191.38;4995053;28;20426;-69
2023/10/01 06:39:40;;;;;;;6.43;3.30;;;;;;;12.43;100.00;100222.63;4995508;28;20386;-66
2023/10/01 06:42:18;;;;;;;5.05;3.13;;;;;;;12.56;100.00;100254.84;4994860;28;20061;-67
2023/10/01 06:44:55;;;;;;;8.67;3.30;;;;;;;12.54;100.00;100251.53;4992964;28;20030;-68
2023/10/01 06:47:23;;;;;;;6.43;3.73;;;;;;;12.60;100.00;100258.78;4994320;28;20068;-67
2023/10/01 06:50:07;;;;;;;7.90;3.33;;;;;;;12.66;100.00;100258.84;4994252;28;20125;-69
2023/10/01 06:52:41;;;;;;;6.27;3.23;;;;;;;12.62;100.00;100249.56;4993443;28;20026;-69
2023/10/01 06:55:08;;;;;;;8.17;3.53;;;;;;;12.65;100.00;100237.69;4991552;28;20536;-69
2023/10/01 06:57:35;;;;;;;5.20;2.73;;;;;;;12.75;100.00;100235.56;4993644;28;20042;-69
2023/10/01 07:00:04;;;;;;;5.75;3.03;;;;;;;12.79;100.00;100242.16;4994211;28;20034;-67
2023/10/01 07:02:34;;;;;;;7.20;3.43;;;;;;;12.67;100.00;100231.13;4993940;28;20037;-66
2023/10/01 07:05:00;;;;;;;4.80;3.13;;;;;;;13.00;100.00;100271.56;4993090;28;20026;-68
2023/10/01 07:07:28;;;;;;;9.27;4.43;;;;;;;12.98;100.00;100256.72;4993840;28;20108;-68
2023/10/01 07:10:00;;;;;;;7.53;3.30;;;;;;;13.12;100.00;100279.91;4996679;28;20104;-69
2023/10/01 07:12:26;;;;;;;5.80;2.87;;;;;;;13.29;100.00;100264.47;4997176;28;20492;-69
2023/10/01 07:14:53;;;;;;;8.27;2.87;;;;;;;13.26;100.00;100254.16;4998634;28;20038;-69
2023/10/01 07:17:25;;;;;;;9.07;2.53;;;;;;;13.30;100.00;100264.28;4997490;28;20460;-68
2023/10/01 07:20:00;;;;;;;3.73;2.37;;;;;;;13.13;100.00;100260.19;4994257;28;20026;-68
2023/10/01 07:22:32;;;;;;;4.47;2.33;;;;;;;13.37;100.00;100284.91;4993608;28;20027;-67
2023/10/01 07:24:59;;;;;;;4.27;2.63;;;;;;;13.40;100.00;100281.84;4992243;28;20490;-69
2023/10/01 07:27:27;;;;;;;5.00;3.40;;;;;;;13.34;100.00;100270.09;4994054;28;20057;-71
2023/10/01 07:29:56;;;;;;;8.13;2.97;;;;;;;13.38;100.00;100271.34;4994067;28;20038;-71
2023/10/01 07:32:24;;;;;;;5.03;2.80;;;;;;;13.15;100.00;100242.09;4976199;28;20046;-68
2023/10/01 07:34:58;;;;;;;6.40;3.25;;;;;;;13.29;100.00;100265.28;4998388;28;20126;-67
2023/10/01 07:37:26;;;;;;;7.97;2.40;;;;;;;13.50;100.00;100287.69;4997170;28;20518;-70
2023/10/01 07:39:55;;;;;;;4.30;2.50;;;;;;;13.58;100.00;100303.59;4997673;28;20512;-71
2023/10/01 07:42:25;;;;;;;5.13;2.23;;;;;;;13.44;100.00;100278.59;4996547;28;20525;-68
2023/10/01 07:44:56;;;;;;;4.57;2.30;;;;;;;13.53;100.00;100298.00;4993721;28;20022;-67
2023/10/01 07:47:28;;;;;;;4.80;2.33;;;;;;;13.56;100.00;100308.31;4993163;28;20034;-70
2023/10/01 07:49:58;;;;;;;4.57;2.73;;;;;;;13.55;100.00;100309.34;4993112;28;20100;-69
2023/10/01 07:52:24;;;;;;;7.07;2.40;;;;;;;13.59;100.00;100307.97;4993146;28;20038;-68
2023/10/01 07:54:50;;;;;;;3.67;2.77;;;;;;;13.72;100.00;100313.41;4993187;28;20038;-71
2023/10/01 07:57:17;;;;;;;6.43;2.60;;;;;;;13.67;100.00;100293.59;4993370;28;20074;-69
2023/10/01 07:59:46;;;;;;;4.70;2.43;;;;;;;13.67;100.00;100309.66;4990771;28;20034;-69
2023/10/01 08:07:15;;;;;;;4.00;2.30;;;;;;;13.67;100.00;100315.84;4973274;28;20391;-69
2023/10/01 08:09:46;;;;;;;6.10;2.10;;;;;;;13.76;100.00;100332.56;4956212;28;20054;-68
2023/10/01 08:12:13;;;;;;;4.10;2.23;;;;;;;13.72;100.00;100310.72;4973443;28;20104;-65
2023/10/01 08:14:40;;;;;;;7.60;2.10;;;;;;;13.79;100.00;100313.44;4972278;28;20045;-66
2023/10/01 08:17:07;;;;;;;4.67;2.13;;;;;;;13.98;100.00;100328.00;4973483;28;20031;-66
2023/10/01 08:19:45;;;;;;;5.10;2.47;;;;;;;13.87;100.00;100314.13;4973343;28;20132;-67
2023/10/01 08:22:13;;;;;;;3.70;2.65;;;;;;;13.89;100.00;100325.50;4973981;28;20419;-66
2023/10/01 08:24:45;;;;;;;4.80;2.23;;;;;;;13.82;100.00;100324.59;4974892;28;20118;-66
2023/10/01 08:27:12;;;;;;;4.00;2.50;;;;;;;13.78;100.00;100333.22;4991013;28;20104;-69
2023/10/01 08:30:39;;;;;;;5.93;2.13;;;;;;;14.00;100.00;100350.06;4992716;28;20034;-66
2023/10/01 08:32:38;;;;;;;4.03;2.20;;;;;;;14.03;100.00;100352.34;4987554;28;20042;-67
2023/10/01 08:35:08;;;;;;;4.60;2.40;;;;;;;13.92;99.05;100314.38;4992429;28;20053;-66
2023/10/01 08:37:37;;;;;;;6.37;2.40;;;;;;;14.21;97.88;100368.75;4991290;28;20033;-68
2023/10/01 08:40:13;;;;;;;4.27;1.70;;;;;;;13.94;96.40;100301.63;4992554;28;20085;-69
2023/10/01 08:42:45;;;;;;;5.13;2.67;;;;;;;14.41;96.91;100334.88;4992399;28;20027;-69
2023/10/01 08:45:12;;;;;;;4.27;2.93;;;;;;;14.56;96.63;100337.47;4992441;28;20502;-68
2023/10/01 08:47:38;;;;;;;4.27;1.87;;;;;;;14.42;95.57;100357.94;4992555;28;20482;-67
2023/10/01 08:50:27;;;;;;;3.13;1.87;;;;;;;14.36;96.19;100356.06;4991906;28;20176;-69
2023/10/01 08:52:57;;;;;;;2.20;1.83;;;;;;;14.34;97.27;100360.78;4992722;28;20422;-67
2023/10/01 08:55:40;;;;;;;3.67;1.87;;;;;;;14.12;97.51;100322.53;4992535;28;20069;-68
2023/10/01 09:00:52;;;;;;;3.80;2.07;;;;;;;14.14;97.33;100298.25;4992774;28;20026;-68
2023/10/01 09:03:26;;;;;;;4.77;2.07;;;;;;;14.30;98.28;100343.47;4992913;28;20022;-67
2023/10/01 09:06:24;;;;;;;2.83;2.00;;;;;;;14.42;97.29;100366.00;4992274;28;20105;-67
2023/10/01 09:08:54;;;;;;;3.53;1.80;;;;;;;14.60;96.45;100370.88;4992190;28;20120;-68
2023/10/01 09:11:42;;;;;;;6.10;4.03;;;;;;;14.52;96.10;100337.03;4991063;28;20305;-66
2023/10/01 09:14:19;;;;;;;4.45;2.33;;;;;;;14.53;93.75;100340.53;4992394;28;20026;-69
2023/10/01 09:16:46;;;;;;;5.73;2.33;;;;;;;14.71;93.97;100351.53;4992504;28;20094;-67
2023/10/01 09:19:31;;;;;;;6.35;2.50;;;;;;;14.86;93.11;100381.72;4992218;28;20022;-68
2023/10/01 09:22:15;;;;;;;2.27;1.43;;;;;;;14.86;91.41;100370.19;4992037;28;20084;-68
2023/10/01 09:24:55;;;;;;;3.53;1.67;;;;;;;14.92;91.28;100366.69;4992102;28;20045;-66
2023/10/01 09:27:28;;;;;;;2.00;1.40;;;;;;;15.14;90.28;100367.38;4991692;28;20042;-68
2023/10/01 09:30:26;;;;;;;4.67;2.00;;;;;;;15.38;88.99;100363.34;4992575;28;20117;-67
2023/10/01 09:33:05;;;;;;;3.20;2.17;;;;;;;15.72;87.75;100378.47;4996302;28;20030;-68
2023/10/01 09:35:42;;;;;;;;;;;;;;;15.88;87.89;100388.78;4990209;28;20029;-68
2023/10/01 09:38:10;;;;;;;5.27;1.73;;;;;;;15.80;85.57;100397.88;4983731;28;19913;-68
2023/10/01 09:40:44;;;;;;;3.77;1.93;;;;;;;15.59;84.42;100373.06;4987062;28;20445;-68
2023/10/01 09:46:01;;;;;;;3.30;2.30;;;;;;;15.48;86.14;100386.03;4995672;28;20108;-70
2023/10/01 09:48:48;;;;;;;2.30;1.97;;;;;;;15.72;84.22;100392.72;4995382;28;20059;-67
2023/10/01 09:51:14;;;;;;;4.50;2.00;;;;;;;15.89;83.30;100400.38;4975786;28;20070;-70
2023/10/01 09:53:44;;;;;;;2.97;2.00;;;;;;;16.02;84.72;100403.06;4993366;28;20374;-67
2023/10/01 09:57:08;;;;;;;3.83;1.77;;;;;;;16.11;82.71;100401.81;4994715;28;20062;-67
2023/10/01 09:59:07;;;;;;;4.30;1.93;;;;;;;16.02;81.64;100395.00;4977469;28;20039;-68
2023/10/01 10:01:40;;;;;;;3.40;2.00;;;;;;;15.71;80.08;100372.28;4990888;28;20058;-68
2023/10/01 10:04:20;;;;;;;3.77;1.83;;;;;;;15.90;80.09;100413.63;4975935;28;20121;-70
2023/10/01 10:06:59;;;;;;;3.27;1.70;;;;;;;15.58;79.93;100423.25;4975786;28;20046;-67
2023/10/01 10:09:27;;;;;;;3.50;2.07;;;;;;;15.34;82.32;100405.00;4975518;28;20027;-68
2023/10/01 10:11:53;;;;;;;3.17;1.40;;;;;;;15.37;81.69;100429.59;4975725;28;20114;-68
2023/10/01 10:14:28;;;;;;;3.50;1.53;;;;;;;15.24;83.10;100426.00;4988914;28;20354;-68
2023/10/01 10:17:18;;;;;;;4.83;1.70;;;;;;;15.20;83.87;100420.22;4994890;28;20034;-68
2023/10/01 10:20:15;;;;;;;4.47;1.87;;;;;;;15.10;83.61;100434.03;4994922;28;20030;-68
2023/10/01 10:23:17;;;;;;;4.47;1.60;;;;;;;15.02;83.86;100419.94;4995129;28;20030;-69
2023/10/01 10:25:44;;;;;;;2.20;1.33;;;;;;;14.89;83.80;100418.03;4993921;28;20062;-65
2023/10/01 10:28:12;;;;;;;2.83;1.77;;;;;;;14.67;83.44;100381.63;4994640;28;20031;-69
2023/10/01 10:30:41;;;;;;;3.17;1.35;;;;;;;14.77;82.63;100422.31;4995019;28;20502;-68
2023/10/01 10:33:17;;;;;;;4.00;1.63;;;;;;;14.76;82.36;100429.53;4994898;28;20101;-67
2023/10/01 10:35:49;;;;;;;3.00;1.77;;;;;;;14.85;82.74;100439.06;4994807;28;20044;-66
2023/10/01 10:38:51;;;;;;;1.97;1.60;;;;;;;15.11;81.20;100446.41;4994357;28;20030;-70
2023/10/01 10:41:19;;;;;;;2.73;1.70;;;;;;;14.97;80.55;100435.81;4994940;28;20041;-66
2023/10/01 10:44:07;;;;;;;3.60;1.48;;;;;;;14.93;81.72;100446.09;4993650;28;20112;-69
2023/10/01 10:47:18;;;;;;;4.13;1.90;;;;;;;14.93;82.55;100443.41;4994367;28;20027;-71
2023/10/01 10:49:51;;;;;;;2.37;1.60;;;;;;;15.05;82.89;100444.53;4989642;28;20170;-73
2023/10/01 10:52:33;;;;;;;2.23;1.50;;;;;;;15.13;82.54;100444.34;4995492;28;20027;-71
2023/10/01 10:55:36;;;;;;;2.90;1.93;;;;;;;15.27;81.07;100450.59;4994095;28;20029;-70
2023/10/01 10:58:11;;;;;;;2.10;1.70;;;;;;;15.29;81.98;100448.53;4994123;28;20076;-73
2023/10/01 11:00:40;;;;;;;4.73;1.50;;;;;;;15.40;82.96;100449.81;4994922;28;20091;-70
2023/10/01 11:03:10;;;;;;;7.10;1.80;;;;;;;15.29;82.44;100442.31;4993953;28;20066;-69
2023/10/01 11:05:49;;;;;;;3.70;1.43;;;;;;;15.40;81.18;100452.50;4994419;28;20378;-68
2023/10/01 11:08:25;;;;;;;3.07;1.63;;;;;;;14.92;81.65;100380.09;4995061;28;20450;-70
2023/10/01 11:10:56;;;;;;;4.17;1.40;;;;;;;15.24;83.21;100469.75;4994153;28;20030;-69
2023/10/01 11:13:38;;;;;;;4.07;1.60;;;;;;;15.07;83.11;100447.84;4993660;28;20109;-68
2023/10/01 11:16:14;;;;;;;2.37;1.70;;;;;;;15.20;83.85;100473.88;4992513;28;20077;-67
2023/10/01 11:18:47;;;;;;;3.13;1.70;;;;;;;14.87;84.02;100441.53;4993788;28;20520;-66
2023/10/01 11:21:31;;;;;;;3.70;1.83;;;;;;;15.15;83.06;100474.47;4993828;28;20030;-68
2023/10/01 11:24:00;;;;;;;3.90;1.90;;;;;;;14.99;84.76;100480.16;4993801;28;20034;-70
2023/10/01 11:26:29;;;;;;;2.17;1.40;;;;;;;14.91;85.99;100464.25;4993955;28;20046;-69
2023/10/01 11:29:00;;;;;;;3.30;1.43;;;;;;;15.12;83.01;100472.19;4993628;28;20066;-66
2023/10/01 11:31:31;;;;;;;3.60;1.40;;;;;;;15.26;79.60;100454.28;4993632;28;20030;-69
2023/10/01 11:34:21;;;;;;;2.10;1.47;;;;;;;15.12;82.00;100461.47;4993659;28;20085;-69
2023/10/01 11:36:56;;;;;;;5.43;2.03;;;;;;;15.24;82.51;100479.66;4993428;28;20381;-72
2023/10/01 11:39:38;;;;;;;2.90;1.50;;;;;;;15.43;83.32;100479.75;4993859;28;20034;-69
2023/10/01 11:42:19;;;;;;;1.63;1.33;;;;;;;15.35;81.26;100477.25;4991306;28;20050;-69
2023/10/01 11:44:52;;;;;;;4.00;1.53;;;;;;;15.32;83.08;100471.44;4993362;28;20533;-69
2023/10/01 11:48:05;;;;;;;5.10;1.97;;;;;;;15.18;84.18;100428.47;4992943;28;20037;-68
2023/10/01 11:50:13;;;;;;;2.13;1.73;;;;;;;15.29;84.37;100477.22;4990097;28;20042;-72
2023/10/01 11:52:42;;;;;;;2.13;1.33;;;;;;;15.12;85.13;100461.47;4991784;28;20026;-68
2023/10/01 11:55:18;;;;;;;2.33;1.53;;;;;;;14.96;83.17;100453.75;4991590;28;20048;-69
2023/10/01 11:57:51;;;;;;;1.70;1.33;;;;;;;15.03;83.79;100484.09;4992362;28;20026;-68
2023/10/01 12:00:52;;;;;;;1.73;1.27;;;;;;;15.02;82.08;100490.50;4992975;28;20130;-69
2023/10/01 12:03:10;;;;;;;2.70;1.37;;;;;;;14.88;83.20;100478.88;4991473;28;20418;-70
2023/10/01 12:05:42;;;;;;;3.93;1.53;;;;;;;14.91;82.82;100485.69;4991965;28;20027;-69